createdAt,value
2023-04-09T00:00:29.941Z,24.30
2023-04-09T00:02:57.665Z,24.30
2023-04-09T00:05:26.809Z,24.30
2023-04-09T00:07:54.571Z,24.30
2023-04-09T00:10:22.249Z,24.30
2023-04-09T00:12:49.902Z,24.30
2023-04-09T00:15:27.769Z,24.30
2023-04-09T00:17:58.676Z,24.30
2023-04-09T00:20:27.817Z,24.30
2023-04-09T00:22:56.456Z,24.30
2023-04-09T00:25:24.264Z,24.20
2023-04-09T00:27:51.887Z,24.20
2023-04-09T00:30:19.517Z,24.20
2023-04-09T00:32:47.246Z,24.20
2023-04-09T00:35:14.926Z,24.20
2023-04-09T00:37:43.981Z,24.20
2023-04-09T00:40:12.112Z,24.20
2023-04-09T00:42:39.813Z,24.20
2023-04-09T00:45:08.833Z,24.20
2023-04-09T00:47:37.072Z,24.20
2023-04-09T00:50:05.436Z,24.20
2023-04-09T00:52:34.402Z,24.20
2023-04-09T00:55:05.513Z,24.20
2023-04-09T00:57:33.342Z,24.20
2023-04-09T01:00:01.127Z,24.20
2023-04-09T01:02:31.015Z,24.20
2023-04-09T01:04:59.200Z,24.20
2023-04-09T01:07:37.155Z,24.20
2023-04-09T01:10:18.127Z,24.20
2023-04-09T01:12:55.645Z,24.20
2023-04-09T01:15:27.724Z,24.20
2023-04-09T01:18:01.506Z,24.20
2023-04-09T01:20:36.021Z,24.20
2023-04-09T01:23:12.574Z,24.20
2023-04-09T01:25:51.770Z,24.20
2023-04-09T01:28:23.883Z,24.20
2023-04-09T01:30:54.836Z,24.20
2023-04-09T01:33:23.652Z,24.20
2023-04-09T01:35:52.857Z,24.20
2023-04-09T01:38:22.456Z,24.20
2023-04-09T01:40:51.476Z,24.20
2023-04-09T01:43:19.396Z,24.10
2023-04-09T01:45:49.617Z,24.10
2023-04-09T01:48:17.690Z,24.10
2023-04-09T01:50:46.041Z,24.10
2023-04-09T01:53:14.621Z,24.10
2023-04-09T01:55:42.326Z,24.10
2023-04-09T01:58:09.950Z,24.10
2023-04-09T02:00:41.090Z,24.10
2023-04-09T02:03:16.864Z,24.10
2023-04-09T02:05:47.509Z,24.10
2023-04-09T02:08:21.897Z,24.10
2023-04-09T02:10:55.684Z,24.10
2023-04-09T02:13:24.648Z,24.10
2023-04-09T02:15:53.238Z,24.10
2023-04-09T02:18:27.453Z,24.10
2023-04-09T02:20:55.704Z,24.10
2023-04-09T02:23:23.834Z,24.10
2023-04-09T02:25:52.146Z,24.10
2023-04-09T02:28:19.861Z,24.10
2023-04-09T02:30:47.495Z,24.10
2023-04-09T02:33:15.304Z,24.10
2023-04-09T02:35:44.344Z,24.10
2023-04-09T02:38:13.941Z,24.00
2023-04-09T02:40:42.136Z,24.00
2023-04-09T02:43:10.610Z,24.00
2023-04-09T02:45:38.379Z,24.00
2023-04-09T02:48:06.376Z,24.00
2023-04-09T02:50:34.061Z,24.00
2023-04-09T02:53:03.318Z,24.00
2023-04-09T02:55:31.142Z,24.00
2023-04-09T02:57:58.809Z,24.00
2023-04-09T03:00:26.447Z,24.00
2023-04-09T03:02:54.253Z,24.00
2023-04-09T03:05:22.047Z,24.00
2023-04-09T03:07:49.732Z,24.00
2023-04-09T03:10:18.997Z,24.00
2023-04-09T03:12:47.917Z,24.00
2023-04-09T03:15:15.707Z,24.00
2023-04-09T03:17:43.346Z,24.00
2023-04-09T03:20:11.538Z,24.00
2023-04-09T03:22:39.589Z,23.90
2023-04-09T03:25:07.855Z,23.90
2023-04-09T03:27:36.974Z,23.90
2023-04-09T03:30:05.174Z,23.90
2023-04-09T03:32:32.874Z,23.90
2023-04-09T03:35:00.651Z,23.90
2023-04-09T03:37:28.276Z,23.90
2023-04-09T03:39:56.022Z,23.90
2023-04-09T03:42:23.649Z,23.90
2023-04-09T03:44:54.688Z,23.90
2023-04-09T03:47:22.340Z,23.90
2023-04-09T03:49:50.043Z,23.90
2023-04-09T03:52:17.725Z,23.90
2023-04-09T03:54:45.980Z,23.80
2023-04-09T03:57:13.617Z,23.80
2023-04-09T03:59:41.257Z,23.80
2023-04-09T04:02:10.309Z,23.80
2023-04-09T04:04:38.045Z,23.80
2023-04-09T04:07:05.826Z,23.80
2023-04-09T04:09:33.451Z,23.80
2023-04-09T04:12:02.372Z,23.80
2023-04-09T04:14:29.998Z,23.80
2023-04-09T04:16:57.635Z,23.80
2023-04-09T04:19:26.596Z,23.80
2023-04-09T04:21:54.293Z,23.80
2023-04-09T04:24:21.898Z,23.80
2023-04-09T04:26:49.557Z,23.80
2023-04-09T04:29:17.225Z,23.80
2023-04-09T04:31:44.841Z,23.80
2023-04-09T04:34:12.454Z,23.70
2023-04-09T04:36:41.440Z,23.80
2023-04-09T04:39:09.073Z,23.80
2023-04-09T04:41:36.680Z,23.80
2023-04-09T04:44:04.386Z,23.80
2023-04-09T04:46:32.009Z,23.80
2023-04-09T04:48:59.659Z,23.80
2023-04-09T04:51:27.953Z,23.80
2023-04-09T04:53:56.976Z,23.80
2023-04-09T04:56:24.578Z,23.90
2023-04-09T04:58:52.381Z,23.80
2023-04-09T05:01:20.277Z,23.90
2023-04-09T05:03:47.968Z,23.90
2023-04-09T05:06:15.674Z,23.90
2023-04-09T05:08:43.296Z,23.90
2023-04-09T05:11:15.141Z,23.90
2023-04-09T05:13:42.738Z,23.90
2023-04-09T05:16:17.812Z,24.00
2023-04-09T05:18:45.534Z,24.00
2023-04-09T05:21:16.213Z,24.00
2023-04-09T05:23:43.845Z,24.00
2023-04-09T05:26:11.535Z,24.00
2023-04-09T05:28:40.608Z,24.00
2023-04-09T05:31:14.511Z,24.00
2023-04-09T05:33:42.293Z,24.10
2023-04-09T05:36:09.938Z,24.10
2023-04-09T05:38:37.552Z,24.10
2023-04-09T05:41:05.244Z,24.10
2023-04-09T05:43:33.340Z,24.20
2023-04-09T05:46:02.310Z,24.20
2023-04-09T05:48:30.032Z,24.20
2023-04-09T05:50:59.690Z,24.30
2023-04-09T05:53:28.554Z,24.30
2023-04-09T05:55:56.435Z,24.40
2023-04-09T05:58:24.241Z,24.40
2023-04-09T06:00:52.521Z,24.50
2023-04-09T06:03:21.805Z,24.50
2023-04-09T06:05:49.566Z,24.60
2023-04-09T06:08:17.242Z,24.70
2023-04-09T06:10:44.993Z,24.70
2023-04-09T06:13:12.644Z,24.80
2023-04-09T06:15:40.572Z,24.90
2023-04-09T06:18:08.301Z,25.00
2023-04-09T06:20:37.296Z,25.10
2023-04-09T06:23:04.947Z,25.10
2023-04-09T06:25:32.595Z,25.20
2023-04-09T06:28:00.261Z,25.30
2023-04-09T06:30:28.029Z,25.40
2023-04-09T06:32:55.775Z,25.50
2023-04-09T06:35:23.958Z,25.50
2023-04-09T06:37:52.908Z,25.60
2023-04-09T06:40:23.344Z,25.70
2023-04-09T06:42:51.425Z,25.70
2023-04-09T06:45:19.263Z,25.80
2023-04-09T06:47:47.032Z,25.80
2023-04-09T06:50:14.833Z,25.80
2023-04-09T06:52:42.786Z,25.90
2023-04-09T06:55:11.892Z,25.90
2023-04-09T06:57:39.499Z,25.90
2023-04-09T07:00:08.378Z,26.00
2023-04-09T07:02:36.396Z,26.00
2023-04-09T07:05:05.590Z,26.00
2023-04-09T07:07:33.206Z,26.00
2023-04-09T07:10:01.605Z,26.10
2023-04-09T07:12:31.545Z,26.10
2023-04-09T07:14:59.804Z,26.10
2023-04-09T07:17:27.464Z,26.20
2023-04-09T07:19:55.367Z,26.20
2023-04-09T07:22:23.495Z,26.30
2023-04-09T07:24:54.841Z,26.40
2023-04-09T07:27:23.299Z,26.50
2023-04-09T07:29:52.317Z,26.60
2023-04-09T07:32:20.028Z,26.80
2023-04-09T07:34:47.893Z,27.00
2023-04-09T07:37:15.662Z,27.20
2023-04-09T07:39:43.588Z,27.40
2023-04-09T07:42:11.430Z,27.60
2023-04-09T07:44:39.598Z,27.80
2023-04-09T07:47:09.374Z,28.00
2023-04-09T07:49:38.485Z,28.30
2023-04-09T07:52:07.383Z,28.50
2023-04-09T07:54:35.917Z,28.70
2023-04-09T07:57:04.348Z,28.90
2023-04-09T07:59:32.163Z,29.20
2023-04-09T08:02:00.223Z,29.40
2023-04-09T08:04:29.449Z,29.60
2023-04-09T08:06:57.100Z,29.80
2023-04-09T08:09:24.777Z,30.00
2023-04-09T08:11:53.291Z,30.20
2023-04-09T08:14:21.284Z,30.40
2023-04-09T08:16:50.320Z,30.60
2023-04-09T08:19:19.107Z,30.70
2023-04-09T08:21:49.619Z,30.90
2023-04-09T08:24:18.322Z,31.10
2023-04-09T08:26:46.159Z,31.30
2023-04-09T08:29:14.128Z,31.40
2023-04-09T08:31:42.150Z,31.60
2023-04-09T08:34:09.844Z,31.80
2023-04-09T08:36:37.638Z,31.90
2023-04-09T08:39:07.073Z,32.00
2023-04-09T08:41:36.386Z,32.20
2023-04-09T08:44:04.053Z,32.30
2023-04-09T08:46:31.967Z,32.40
2023-04-09T08:48:59.625Z,32.50
2023-04-09T08:51:28.732Z,32.60
2023-04-09T08:53:58.388Z,32.70
2023-04-09T08:56:27.716Z,32.80
2023-04-09T08:58:56.710Z,32.90
2023-04-09T09:01:31.040Z,33.00
2023-04-09T09:04:01.253Z,33.00
2023-04-09T09:06:32.764Z,33.10
2023-04-09T09:09:01.991Z,33.10
2023-04-09T09:11:31.392Z,33.10
2023-04-09T09:14:00.049Z,33.10
2023-04-09T09:16:28.354Z,33.00
2023-04-09T09:18:57.202Z,33.00
2023-04-09T09:21:28.621Z,32.90
2023-04-09T09:23:56.593Z,32.80
2023-04-09T09:26:26.363Z,32.70
2023-04-09T09:28:55.859Z,32.70
2023-04-09T09:31:24.312Z,32.60
2023-04-09T09:33:52.349Z,32.50
2023-04-09T09:36:33.184Z,32.30
2023-04-09T09:39:03.802Z,32.20
2023-04-09T09:41:31.697Z,32.00
2023-04-09T09:44:00.776Z,31.90
2023-04-09T09:46:29.727Z,31.70
2023-04-09T09:48:57.549Z,31.60
2023-04-09T09:51:28.846Z,31.50
2023-04-09T09:53:58.008Z,31.40
2023-04-09T09:56:32.625Z,31.30
2023-04-09T09:59:08.483Z,31.20
2023-04-09T10:01:36.757Z,31.10
2023-04-09T10:04:07.548Z,30.90
2023-04-09T10:06:35.778Z,30.80
2023-04-09T10:09:06.391Z,30.80
2023-04-09T10:11:36.306Z,30.60
2023-04-09T10:14:06.188Z,30.50
2023-04-09T10:16:37.272Z,30.40
2023-04-09T10:19:06.897Z,30.30
2023-04-09T10:21:41.673Z,30.30
2023-04-09T10:24:11.207Z,30.20
2023-04-09T10:26:42.159Z,30.10
2023-04-09T10:29:14.494Z,30.00
2023-04-09T10:31:55.930Z,29.90
2023-04-09T10:34:24.830Z,29.90
2023-04-09T10:36:54.692Z,29.80
2023-04-09T10:39:22.620Z,29.70
2023-04-09T10:41:51.277Z,29.70
2023-04-09T10:44:24.688Z,29.60
2023-04-09T10:46:54.965Z,29.60
2023-04-09T10:49:24.115Z,29.50
2023-04-09T10:51:56.110Z,29.50
2023-04-09T10:54:47.637Z,29.40
2023-04-09T10:57:21.210Z,29.40
2023-04-09T10:59:52.005Z,29.30
2023-04-09T11:02:47.598Z,29.30
2023-04-09T11:05:28.861Z,29.30
2023-04-09T11:08:03.138Z,29.20
2023-04-09T11:10:30.940Z,29.20
2023-04-09T11:12:58.667Z,29.10
2023-04-09T11:15:27.997Z,29.10
2023-04-09T11:17:57.620Z,29.10
2023-04-09T11:20:28.187Z,29.10
2023-04-09T11:22:56.631Z,29.00
2023-04-09T11:25:26.318Z,29.00
2023-04-09T11:27:54.674Z,29.00
2023-04-09T11:30:22.309Z,28.90
2023-04-09T11:32:53.195Z,28.90
2023-04-09T11:35:22.335Z,28.90
2023-04-09T11:37:52.301Z,28.90
2023-04-09T11:40:21.973Z,28.80
2023-04-09T11:42:51.696Z,28.80
2023-04-09T11:45:20.630Z,28.80
2023-04-09T11:47:48.776Z,28.80
2023-04-09T11:50:18.339Z,28.80
2023-04-09T11:52:46.713Z,28.80
2023-04-09T11:55:24.542Z,28.70
2023-04-09T11:57:54.320Z,28.70
2023-04-09T12:00:22.237Z,28.70
2023-04-09T12:02:51.286Z,28.70
2023-04-09T12:05:25.199Z,28.70
2023-04-09T12:07:56.645Z,28.70
2023-04-09T12:10:28.541Z,28.70
2023-04-09T12:12:56.819Z,28.70
2023-04-09T12:15:26.170Z,28.70
2023-04-09T12:17:56.069Z,28.70
2023-04-09T12:20:36.667Z,28.70
2023-04-09T12:23:05.814Z,28.70
2023-04-09T12:25:35.509Z,28.70
2023-04-09T12:28:03.974Z,28.60
2023-04-09T12:30:31.723Z,28.70
2023-04-09T12:32:59.891Z,28.60
2023-04-09T12:35:28.301Z,28.60
2023-04-09T12:37:57.431Z,28.60
2023-04-09T12:40:25.285Z,28.60
2023-04-09T12:42:53.084Z,28.60
2023-04-09T12:45:21.202Z,28.60
2023-04-09T12:47:49.190Z,28.60
2023-04-09T12:50:17.206Z,28.60
2023-04-09T12:52:44.907Z,28.50
2023-04-09T12:55:14.701Z,28.50
2023-04-09T12:57:45.009Z,28.50
2023-04-09T13:00:13.955Z,28.50
2023-04-09T13:02:41.809Z,28.50
2023-04-09T13:05:09.772Z,28.50
2023-04-09T13:07:37.417Z,28.50
2023-04-09T13:10:05.623Z,28.40
2023-04-09T13:12:34.704Z,28.40
2023-04-09T13:15:02.380Z,28.40
2023-04-09T13:17:30.113Z,28.40
2023-04-09T13:19:57.765Z,28.40
2023-04-09T13:22:25.730Z,28.40
2023-04-09T13:24:53.628Z,28.40
2023-04-09T13:27:21.249Z,28.30
2023-04-09T13:29:50.314Z,28.30
2023-04-09T13:32:19.053Z,28.30
2023-04-09T13:34:46.678Z,28.30
2023-04-09T13:37:14.374Z,28.30
2023-04-09T13:39:42.095Z,28.30
2023-04-09T13:42:13.704Z,28.30
2023-04-09T13:44:44.931Z,28.20
2023-04-09T13:47:14.871Z,28.20
2023-04-09T13:49:43.133Z,28.20
2023-04-09T13:52:11.636Z,28.20
2023-04-09T13:54:39.253Z,28.20
2023-04-09T13:57:07.018Z,28.20
2023-04-09T13:59:34.927Z,28.20
2023-04-09T14:02:02.797Z,28.20
2023-04-09T14:04:32.436Z,28.20
2023-04-09T14:07:00.050Z,28.10
2023-04-09T14:09:27.685Z,28.10
2023-04-09T14:11:56.132Z,28.10
2023-04-09T14:14:44.734Z,28.10
2023-04-09T14:17:12.364Z,28.10
2023-04-09T14:19:41.316Z,28.10
2023-04-09T14:22:09.083Z,28.10
2023-04-09T14:24:40.083Z,28.00
2023-04-09T14:27:08.715Z,28.00
2023-04-09T14:29:36.556Z,28.00
2023-04-09T14:32:04.365Z,28.00
2023-04-09T14:34:32.655Z,28.00
2023-04-09T14:37:06.360Z,28.00
2023-04-09T14:39:36.313Z,28.00
2023-04-09T14:42:03.951Z,27.90
2023-04-09T14:44:31.753Z,27.90
2023-04-09T14:47:00.020Z,27.90
2023-04-09T14:49:27.732Z,27.90
2023-04-09T14:51:55.364Z,27.90
2023-04-09T14:54:24.370Z,27.90
2023-04-09T14:56:52.075Z,27.80
2023-04-09T14:59:19.656Z,27.80
2023-04-09T15:01:47.393Z,27.80
2023-04-09T15:04:15.694Z,27.80
2023-04-09T15:06:43.411Z,27.80
2023-04-09T15:09:11.020Z,27.80
2023-04-09T15:11:40.013Z,27.70
2023-04-09T15:14:07.648Z,27.70
2023-04-09T15:16:37.431Z,27.70
2023-04-09T15:19:05.305Z,27.70
2023-04-09T15:21:32.954Z,27.70
2023-04-09T15:24:00.671Z,27.70
2023-04-09T15:26:28.350Z,27.70
2023-04-09T15:29:02.743Z,27.60
2023-04-09T15:31:30.643Z,27.60
2023-04-09T15:33:58.278Z,27.60
2023-04-09T15:36:26.214Z,27.60
2023-04-09T15:38:54.923Z,27.60
2023-04-09T15:41:23.972Z,27.60
2023-04-09T15:43:52.383Z,27.60
2023-04-09T15:46:21.417Z,27.60
2023-04-09T15:48:49.024Z,27.60
2023-04-09T15:51:16.719Z,27.50
2023-04-09T15:53:44.633Z,27.50
2023-04-09T15:56:15.133Z,27.50
2023-04-09T15:58:42.806Z,27.50
2023-04-09T16:01:11.050Z,27.50
2023-04-09T16:03:41.410Z,27.50
2023-04-09T16:06:10.517Z,27.50
2023-04-09T16:08:38.739Z,27.50
2023-04-09T16:11:08.145Z,27.50
2023-04-09T16:13:35.776Z,27.50
2023-04-09T16:16:03.667Z,27.50
2023-04-09T16:18:31.475Z,27.50
2023-04-09T16:21:00.577Z,27.40
2023-04-09T16:23:30.419Z,27.40
2023-04-09T16:25:58.497Z,27.40
2023-04-09T16:28:26.474Z,27.40
2023-04-09T16:30:54.292Z,27.40
2023-04-09T16:33:21.893Z,27.40
2023-04-09T16:35:49.545Z,27.40
2023-04-09T16:38:18.603Z,27.40
2023-04-09T16:40:46.391Z,27.40
2023-04-09T16:43:14.290Z,27.40
2023-04-09T16:45:41.997Z,27.30
2023-04-09T16:48:12.224Z,27.30
2023-04-09T16:50:41.190Z,27.30
2023-04-09T16:53:08.921Z,27.30
2023-04-09T16:55:38.044Z,27.30
2023-04-09T16:58:05.750Z,27.30
2023-04-09T17:00:33.404Z,27.30
2023-04-09T17:03:02.239Z,27.20
2023-04-09T17:05:30.472Z,27.20
2023-04-09T17:07:58.092Z,27.20
2023-04-09T17:10:25.770Z,27.20
2023-04-09T17:12:54.744Z,27.20
2023-04-09T17:15:22.646Z,27.20
2023-04-09T17:17:53.015Z,27.20
2023-04-09T17:20:21.795Z,27.10
2023-04-09T17:22:49.462Z,27.10
2023-04-09T17:25:17.290Z,27.10
2023-04-09T17:27:45.497Z,27.10
2023-04-09T17:30:14.633Z,27.10
2023-04-09T17:32:43.768Z,27.10
2023-04-09T17:35:11.443Z,27.00
2023-04-09T17:37:39.495Z,27.00
2023-04-09T17:40:08.356Z,27.00
2023-04-09T17:42:36.119Z,27.00
2023-04-09T17:45:04.614Z,27.00
2023-04-09T17:47:33.709Z,26.90
2023-04-09T17:50:01.468Z,26.90
2023-04-09T17:52:29.416Z,26.90
2023-04-09T17:54:57.478Z,26.90
2023-04-09T17:57:25.094Z,26.90
2023-04-09T17:59:52.864Z,26.80
2023-04-09T18:02:21.553Z,26.80
2023-04-09T18:04:50.830Z,26.80
2023-04-09T18:07:18.498Z,26.80
2023-04-09T18:09:46.235Z,26.80
2023-04-09T18:12:13.865Z,26.80
2023-04-09T18:14:41.468Z,26.80
2023-04-09T18:17:09.428Z,26.70
2023-04-09T18:19:37.062Z,26.70
2023-04-09T18:22:06.009Z,26.70
2023-04-09T18:24:34.406Z,26.70
2023-04-09T18:27:03.148Z,26.70
2023-04-09T18:29:31.396Z,26.60
2023-04-09T18:31:59.460Z,26.60
2023-04-09T18:34:27.190Z,26.60
2023-04-09T18:36:55.447Z,26.60
2023-04-09T18:39:24.422Z,26.60
2023-04-09T18:41:52.205Z,26.60
2023-04-09T18:44:19.885Z,26.50
2023-04-09T18:46:47.656Z,26.50
2023-04-09T18:49:15.403Z,26.50
2023-04-09T18:51:43.067Z,26.50
2023-04-09T18:54:10.866Z,26.50
2023-04-09T18:56:39.912Z,26.50
2023-04-09T18:59:07.631Z,26.40
2023-04-09T19:01:35.531Z,26.40
2023-04-09T19:04:03.333Z,26.40
2023-04-09T19:06:33.079Z,26.40
2023-04-09T19:09:00.708Z,26.40
2023-04-09T19:11:28.744Z,26.40
2023-04-09T19:13:57.761Z,26.30
2023-04-09T19:16:25.428Z,26.30
2023-04-09T19:18:53.502Z,26.30
2023-04-09T19:21:21.204Z,26.30
2023-04-09T19:23:49.180Z,26.30
2023-04-09T19:26:16.817Z,26.30
2023-04-09T19:28:44.441Z,26.30
2023-04-09T19:31:14.495Z,26.20
2023-04-09T19:33:42.229Z,26.20
2023-04-09T19:36:10.275Z,26.20
2023-04-09T19:38:37.910Z,26.20
2023-04-09T19:41:05.947Z,26.20
2023-04-09T19:43:33.729Z,26.20
2023-04-09T19:46:05.799Z,26.20
2023-04-09T19:48:34.876Z,26.20
2023-04-09T19:51:03.045Z,26.20
2023-04-09T19:53:31.025Z,26.10
2023-04-09T19:55:58.780Z,26.10
2023-04-09T19:58:26.440Z,26.10
2023-04-09T20:00:54.941Z,26.10
2023-04-09T20:03:22.890Z,26.10
2023-04-09T20:05:52.030Z,26.10
2023-04-09T20:08:19.727Z,26.10
2023-04-09T20:10:47.729Z,26.00
2023-04-09T20:13:15.476Z,26.00
2023-04-09T20:15:43.888Z,26.00
2023-04-09T20:18:11.657Z,26.00
2023-04-09T20:20:39.300Z,26.00
2023-04-09T20:23:08.256Z,26.00
2023-04-09T20:25:36.663Z,26.00
2023-04-09T20:28:04.799Z,25.90
2023-04-09T20:30:32.898Z,25.90
2023-04-09T20:33:01.284Z,25.90
2023-04-09T20:35:29.064Z,25.90
2023-04-09T20:37:56.677Z,25.90
2023-04-09T20:40:25.884Z,25.90
2023-04-09T20:42:53.465Z,25.90
2023-04-09T20:45:21.108Z,25.90
2023-04-09T20:47:48.744Z,25.90
2023-04-09T20:50:16.484Z,25.90
2023-04-09T20:52:44.711Z,25.90
2023-04-09T20:55:12.327Z,25.90
2023-04-09T20:57:41.380Z,25.80
2023-04-09T21:00:10.214Z,25.80
2023-04-09T21:02:39.252Z,25.80
2023-04-09T21:05:19.504Z,25.80
2023-04-09T21:07:49.290Z,25.80
2023-04-09T21:10:17.002Z,25.80
2023-04-09T21:12:45.956Z,25.80
2023-04-09T21:15:13.687Z,25.80
2023-04-09T21:17:41.333Z,25.80
2023-04-09T21:20:09.777Z,25.80
2023-04-09T21:22:37.364Z,25.80
2023-04-09T21:25:05.761Z,25.70
2023-04-09T21:27:33.373Z,25.70
2023-04-09T21:30:02.336Z,25.70
2023-04-09T21:32:29.965Z,25.70
2023-04-09T21:34:57.610Z,25.70
2023-04-09T21:37:25.264Z,25.70
2023-04-09T21:39:53.090Z,25.70
2023-04-09T21:42:21.191Z,25.70
2023-04-09T21:44:48.790Z,25.70
2023-04-09T21:47:17.818Z,25.70
2023-04-09T21:49:46.423Z,25.70
2023-04-09T21:52:17.167Z,25.70
2023-04-09T21:54:44.901Z,25.60
2023-04-09T21:57:12.642Z,25.60
2023-04-09T21:59:41.183Z,25.60
2023-04-09T22:02:10.362Z,25.60
2023-04-09T22:04:42.434Z,25.60
2023-04-09T22:07:11.213Z,25.60
2023-04-09T22:09:39.084Z,25.60
2023-04-09T22:12:06.903Z,25.60
2023-04-09T22:14:34.542Z,25.60
2023-04-09T22:17:03.414Z,25.50
2023-04-09T22:19:32.424Z,25.50
2023-04-09T22:22:01.380Z,25.50
2023-04-09T22:24:30.278Z,25.50
2023-04-09T22:26:58.912Z,25.50
2023-04-09T22:29:27.727Z,25.50
2023-04-09T22:31:55.732Z,25.50
2023-04-09T22:34:23.542Z,25.50
2023-04-09T22:36:51.545Z,25.50
2023-04-09T22:39:21.442Z,25.50
2023-04-09T22:41:49.072Z,25.50
2023-04-09T22:44:16.726Z,25.50
2023-04-09T22:46:44.377Z,25.40
2023-04-09T22:49:12.364Z,25.40
2023-04-09T22:51:41.745Z,25.40
2023-04-09T22:54:09.681Z,25.40
2023-04-09T22:56:38.634Z,25.40
2023-04-09T22:59:06.299Z,25.40
2023-04-09T23:01:34.156Z,25.40
2023-04-09T23:04:01.872Z,25.40
2023-04-09T23:06:30.926Z,25.40
2023-04-09T23:08:59.857Z,25.40
2023-04-09T23:11:28.176Z,25.30
2023-04-09T23:14:00.442Z,25.30
2023-04-09T23:16:28.080Z,25.30
2023-04-09T23:18:55.933Z,25.30
2023-04-09T23:21:23.743Z,25.30
2023-04-09T23:23:51.598Z,25.30
2023-04-09T23:26:19.373Z,25.30
2023-04-09T23:28:47.013Z,25.30
2023-04-09T23:31:16.110Z,25.30
2023-04-09T23:33:43.777Z,25.30
2023-04-09T23:36:11.450Z,25.20
2023-04-09T23:38:40.423Z,25.20
2023-04-09T23:41:08.175Z,25.20
2023-04-09T23:43:35.977Z,25.20
2023-04-09T23:46:03.638Z,25.20
2023-04-09T23:48:32.577Z,25.20
2023-04-09T23:51:00.223Z,25.20
2023-04-09T23:53:27.824Z,25.20
2023-04-09T23:55:55.454Z,25.10
2023-04-09T23:58:23.147Z,25.10
